createdAt,value
2023-05-07T00:02:42.767Z,51.97
2023-05-07T00:07:45.524Z,46.17
2023-05-07T00:12:48.032Z,78.80
2023-05-07T00:17:50.200Z,154.90
2023-05-07T00:22:52.483Z,182.47
2023-05-07T00:27:54.620Z,192.97
2023-05-07T00:32:56.938Z,187.83
2023-05-07T00:37:59.429Z,184.27
2023-05-07T00:43:01.578Z,176.40
2023-05-07T00:48:04.757Z,234.37
2023-05-07T00:53:08.581Z,125.70
2023-05-07T00:58:11.129Z,185.07
2023-05-07T01:03:13.390Z,153.10
2023-05-07T01:08:17.853Z,142.73
2023-05-07T01:13:21.761Z,223.57
2023-05-07T01:18:24.528Z,223.20
2023-05-07T01:23:28.932Z,256.60
2023-05-07T01:28:31.280Z,210.43
2023-05-07T01:33:39.496Z,270.63
2023-05-07T01:38:43.641Z,234.70
2023-05-07T01:43:48.283Z,198.20
2023-05-07T01:48:52.000Z,144.63
2023-05-07T01:53:54.898Z,186.97
2023-05-07T01:58:57.140Z,281.70
2023-05-07T02:03:59.483Z,275.97
2023-05-07T02:09:04.604Z,292.20
2023-05-07T02:14:07.167Z,253.40
2023-05-07T02:19:09.482Z,257.40
2023-05-07T02:24:12.108Z,232.03
2023-05-07T02:29:14.603Z,260.23
2023-05-07T02:34:18.329Z,285.10
2023-05-07T02:39:20.823Z,346.40
2023-05-07T02:44:22.922Z,365.33
2023-05-07T02:49:26.993Z,369.10
2023-05-07T02:54:29.580Z,368.77
2023-05-07T02:59:32.165Z,265.43
2023-05-07T03:04:34.563Z,232.87
2023-05-07T03:09:36.948Z,129.43
2023-05-07T03:14:39.428Z,262.03
2023-05-07T03:19:41.582Z,311.43
2023-05-07T03:24:43.743Z,313.53
2023-05-07T03:29:46.112Z,316.57
2023-05-07T03:34:48.504Z,320.27
2023-05-07T03:39:51.016Z,360.93
2023-05-07T03:44:54.195Z,366.13
2023-05-07T03:49:57.185Z,349.63
2023-05-07T03:55:00.780Z,355.43
2023-05-07T04:00:05.624Z,366.83
2023-05-07T04:05:11.689Z,320.43
2023-05-07T04:10:16.272Z,245.20
2023-05-07T04:15:21.043Z,321.30
2023-05-07T04:20:23.235Z,353.17
2023-05-07T04:25:32.117Z,355.07
2023-05-07T04:30:43.288Z,307.90
2023-05-07T04:35:47.387Z,322.20
2023-05-07T04:40:50.755Z,331.60
2023-05-07T04:45:57.103Z,344.23
2023-05-07T04:51:01.972Z,286.10
2023-05-07T04:56:04.521Z,344.30
2023-05-07T05:01:13.823Z,316.83
2023-05-07T05:06:17.167Z,317.87
2023-05-07T05:11:19.338Z,254.87
2023-05-07T05:16:21.831Z,268.23
2023-05-07T05:21:24.761Z,310.60
2023-05-07T05:26:31.127Z,341.77
2023-05-07T05:31:34.902Z,333.10
2023-05-07T05:36:37.489Z,317.37
2023-05-07T05:41:40.191Z,325.03
2023-05-07T05:46:44.185Z,321.93
2023-05-07T05:51:47.222Z,320.10
2023-05-07T05:56:50.658Z,356.63
2023-05-07T06:01:52.982Z,380.63
2023-05-07T06:06:55.647Z,386.10
2023-05-07T06:12:00.680Z,388.87
2023-05-07T06:17:06.491Z,359.57
2023-05-07T06:22:08.839Z,326.53
2023-05-07T06:27:11.734Z,322.57
2023-05-07T06:32:15.387Z,320.53
2023-05-07T06:37:19.703Z,354.57
2023-05-07T06:42:30.935Z,351.70
2023-05-07T06:47:36.344Z,311.03
2023-05-07T06:52:38.662Z,311.23
2023-05-07T06:57:42.124Z,135.70
2023-05-07T07:02:44.873Z,236.50
2023-05-07T07:07:53.893Z,250.70
2023-05-07T07:12:57.090Z,293.57
2023-05-07T07:17:59.448Z,265.90
2023-05-07T07:23:01.878Z,272.93
2023-05-07T07:28:04.200Z,274.50
2023-05-07T07:33:06.962Z,302.20
2023-05-07T07:38:12.140Z,259.77
2023-05-07T07:49:43.620Z,297.27
2023-05-07T07:54:47.146Z,303.37
2023-05-07T07:59:51.280Z,244.03
2023-05-07T08:04:55.112Z,368.90
2023-05-07T08:09:57.546Z,365.13
2023-05-07T08:15:01.058Z,368.57
2023-05-07T08:20:03.584Z,349.73
2023-05-07T08:25:06.627Z,327.77
2023-05-07T08:30:10.427Z,131.57
2023-05-07T08:35:13.275Z,137.23
2023-05-07T08:40:16.385Z,153.17
2023-05-07T08:45:22.101Z,142.13
2023-05-07T08:50:27.213Z,229.40
2023-05-07T08:55:31.311Z,270.23
2023-05-07T09:00:34.744Z,302.07
2023-05-07T09:05:37.711Z,263.07
2023-05-07T09:10:43.235Z,277.10
2023-05-07T09:15:46.287Z,279.47
2023-05-07T09:20:49.078Z,243.47
2023-05-07T09:26:02.732Z,231.83
2023-05-07T09:31:09.760Z,281.77
2023-05-07T09:36:12.355Z,281.03
2023-05-07T09:41:17.166Z,247.40
2023-05-07T09:46:33.603Z,307.47
2023-05-07T09:51:50.516Z,157.10
2023-05-07T09:56:54.815Z,191.20
2023-05-07T10:02:04.811Z,245.10
2023-05-07T10:07:10.992Z,165.53
2023-05-07T10:12:13.980Z,220.90
2023-05-07T10:17:18.985Z,137.20
2023-05-07T10:22:23.604Z,229.10
2023-05-07T10:27:27.157Z,275.83
2023-05-07T10:32:56.435Z,296.13
2023-05-07T10:38:06.117Z,233.67
2023-05-07T10:43:12.502Z,141.60
2023-05-07T10:53:30.762Z,227.47
2023-05-07T10:58:51.990Z,220.67
2023-05-07T11:04:17.097Z,189.27
2023-05-07T11:10:02.256Z,165.40
2023-05-07T11:15:56.532Z,246.93
2023-05-07T11:21:07.547Z,261.27
2023-05-07T11:26:18.880Z,269.80
2023-05-07T11:31:25.087Z,369.43
2023-05-07T11:36:33.505Z,357.83
2023-05-07T11:41:38.606Z,338.60
2023-05-07T11:46:46.164Z,328.97
2023-05-07T11:51:48.960Z,332.50
2023-05-07T11:56:51.164Z,343.13
2023-05-07T12:01:53.388Z,361.07
2023-05-07T12:06:56.959Z,358.80
2023-05-07T12:12:07.115Z,330.67
2023-05-07T12:17:11.102Z,157.13
2023-05-07T12:22:14.607Z,71.37
2023-05-07T12:27:18.579Z,81.47
2023-05-07T12:32:23.294Z,159.27
2023-05-07T12:37:28.603Z,195.67
2023-05-07T12:42:37.814Z,155.63
2023-05-07T12:47:40.518Z,93.00
2023-05-07T12:52:48.178Z,121.07
2023-05-07T12:57:54.233Z,113.40
2023-05-07T13:02:56.582Z,191.97
2023-05-07T13:07:58.959Z,187.90
2023-05-07T13:13:01.244Z,188.13
2023-05-07T13:18:03.801Z,110.00
2023-05-07T13:23:06.102Z,154.90
2023-05-07T13:28:11.334Z,47.00
2023-05-07T13:33:14.551Z,105.17
2023-05-07T13:38:17.416Z,110.80
2023-05-07T13:43:20.247Z,134.37
2023-05-07T13:48:22.519Z,143.27
2023-05-07T13:53:24.780Z,181.87
2023-05-07T13:58:27.137Z,176.70
2023-05-07T14:03:29.359Z,183.87
2023-05-07T14:08:32.067Z,137.13
2023-05-07T14:13:35.517Z,269.27
2023-05-07T14:18:39.785Z,132.93
2023-05-07T14:23:42.096Z,165.13
2023-05-07T14:28:47.574Z,151.43
2023-05-07T14:33:51.664Z,156.47
2023-05-07T14:39:00.279Z,182.57
2023-05-07T14:44:05.071Z,179.50
2023-05-07T14:49:07.943Z,169.33
2023-05-07T14:54:10.322Z,151.07
2023-05-07T14:59:12.951Z,163.13
2023-05-07T15:04:16.073Z,146.37
2023-05-07T15:09:19.261Z,118.33
2023-05-07T15:14:23.191Z,125.20
2023-05-07T15:19:30.075Z,180.77
2023-05-07T15:24:32.669Z,178.97
2023-05-07T15:29:35.011Z,191.37
2023-05-07T15:34:38.324Z,113.40
2023-05-07T15:39:40.784Z,102.60
2023-05-07T15:44:43.291Z,97.03
2023-05-07T15:49:45.478Z,78.87
2023-05-07T15:54:48.601Z,79.27
2023-05-07T15:59:51.353Z,103.60
2023-05-07T16:04:53.792Z,146.27
2023-05-07T16:09:55.948Z,151.73
2023-05-07T16:14:58.170Z,160.23
2023-05-07T16:20:00.536Z,169.87
2023-05-07T16:25:02.828Z,164.43
2023-05-07T16:30:05.759Z,124.67
2023-05-07T16:35:08.669Z,87.40
2023-05-07T16:40:11.606Z,73.70
2023-05-07T16:45:13.890Z,84.83
2023-05-07T16:50:16.407Z,79.63
2023-05-07T16:55:18.947Z,108.17
2023-05-07T17:00:21.187Z,139.43
2023-05-07T17:05:24.469Z,160.17
2023-05-07T17:10:27.050Z,182.40
2023-05-07T17:15:29.197Z,175.50
2023-05-07T17:20:31.488Z,178.47
2023-05-07T17:25:37.228Z,183.70
2023-05-07T17:30:39.304Z,145.87
2023-05-07T17:35:41.425Z,125.80
2023-05-07T17:40:43.634Z,137.43
2023-05-07T17:45:46.109Z,140.27
2023-05-07T17:50:48.554Z,138.63
2023-05-07T17:55:50.837Z,152.03
2023-05-07T18:00:55.605Z,160.13
2023-05-07T18:05:57.881Z,202.10
2023-05-07T18:11:00.217Z,109.27
2023-05-07T18:16:02.578Z,175.70
2023-05-07T18:21:05.555Z,164.07
2023-05-07T18:26:08.581Z,122.53
2023-05-07T18:31:11.137Z,112.20
2023-05-07T18:36:13.396Z,101.70
2023-05-07T18:41:15.522Z,97.57
2023-05-07T18:46:18.140Z,100.53
2023-05-07T18:51:20.652Z,114.47
2023-05-07T18:56:23.162Z,146.50
2023-05-07T19:01:25.493Z,171.90
2023-05-07T19:06:29.429Z,172.77
2023-05-07T19:11:33.448Z,166.93
2023-05-07T19:16:35.785Z,175.10
2023-05-07T19:21:38.173Z,128.60
2023-05-07T19:26:41.305Z,99.33
2023-05-07T19:31:43.460Z,99.97
2023-05-07T19:36:45.825Z,82.97
2023-05-07T19:41:48.502Z,106.33
2023-05-07T19:46:51.318Z,117.73
2023-05-07T19:51:53.917Z,153.43
2023-05-07T19:56:59.814Z,173.90
2023-05-07T20:02:02.032Z,183.03
2023-05-07T20:07:06.001Z,170.33
2023-05-07T20:12:08.472Z,97.50
2023-05-07T20:17:10.735Z,102.10
2023-05-07T20:22:13.121Z,104.40
2023-05-07T20:27:16.356Z,101.67
2023-05-07T20:32:18.951Z,113.27
2023-05-07T20:37:21.496Z,144.70
2023-05-07T20:42:25.302Z,156.17
2023-05-07T20:47:28.050Z,163.47
2023-05-07T20:52:30.217Z,162.30
2023-05-07T20:57:32.407Z,178.30
2023-05-07T21:02:34.590Z,171.40
2023-05-07T21:07:37.273Z,180.30
2023-05-07T21:12:40.056Z,164.93
2023-05-07T21:17:42.295Z,161.07
2023-05-07T21:22:44.402Z,85.70
2023-05-07T21:27:46.985Z,111.70
2023-05-07T21:32:49.807Z,131.07
2023-05-07T21:37:52.024Z,143.43
2023-05-07T21:42:54.608Z,148.27
2023-05-07T21:47:57.117Z,171.73
2023-05-07T21:52:59.222Z,157.97
2023-05-07T21:58:05.501Z,159.33
2023-05-07T22:03:08.435Z,130.97
2023-05-07T22:08:10.581Z,122.03
2023-05-07T22:13:12.840Z,137.77
2023-05-07T22:18:15.165Z,150.70
2023-05-07T22:23:17.674Z,160.30
2023-05-07T22:28:20.106Z,154.50
2023-05-07T22:33:22.356Z,160.10
2023-05-07T22:38:24.688Z,188.47
2023-05-07T22:43:26.815Z,191.50
2023-05-07T22:48:29.845Z,151.73
2023-05-07T22:53:32.009Z,240.97
2023-05-07T22:58:34.494Z,257.73
2023-05-07T23:03:36.920Z,199.27
2023-05-07T23:08:39.306Z,225.67
2023-05-07T23:13:41.677Z,188.63
2023-05-07T23:18:43.824Z,201.13
2023-05-07T23:23:47.980Z,149.97
2023-05-07T23:28:50.424Z,128.00
2023-05-07T23:33:52.501Z,164.07
2023-05-07T23:38:54.602Z,169.97
2023-05-07T23:43:56.740Z,187.97
2023-05-07T23:48:58.836Z,186.40
2023-05-07T23:54:01.167Z,204.00
2023-05-07T23:59:03.498Z,188.37
